createdAt,value
2019-04-29T00:02:42.504Z,28.20
2019-04-29T00:05:34.253Z,25.93
2019-04-29T00:08:26.953Z,28.50
2019-04-29T00:11:18.208Z,27.70
2019-04-29T00:14:10.283Z,30.87
2019-04-29T00:17:12.624Z,25.63
2019-04-29T00:20:26.000Z,35.30
2019-04-29T00:23:17.691Z,31.97
2019-04-29T00:26:09.027Z,30.37
2019-04-29T00:29:00.643Z,27.27
2019-04-29T00:31:52.401Z,30.23
2019-04-29T00:34:43.933Z,30.83
2019-04-29T00:38:03.940Z,33.10
2019-04-29T00:41:17.519Z,29.23
2019-04-29T00:44:11.120Z,33.57
2019-04-29T00:47:03.205Z,31.70
2019-04-29T00:49:55.760Z,32.30
2019-04-29T00:52:47.087Z,30.17
2019-04-29T00:55:38.562Z,27.83
2019-04-29T00:58:30.231Z,28.67
2019-04-29T01:01:25.336Z,32.40
2019-04-29T01:04:16.733Z,40.20
2019-04-29T01:07:08.307Z,36.70
2019-04-29T01:09:59.930Z,32.67
2019-04-29T01:12:51.253Z,32.77
2019-04-29T01:15:42.616Z,42.30
2019-04-29T01:18:34.079Z,39.87
2019-04-29T01:21:25.514Z,28.30
2019-04-29T01:24:17.034Z,35.97
2019-04-29T01:27:14.211Z,34.67
2019-04-29T01:30:07.785Z,32.50
2019-04-29T01:32:59.345Z,26.30
2019-04-29T01:35:52.672Z,31.40
2019-04-29T01:38:43.788Z,31.00
2019-04-29T01:41:42.399Z,32.80
2019-04-29T01:44:35.815Z,31.67
2019-04-29T01:47:27.462Z,35.07
2019-04-29T01:50:19.059Z,36.93
2019-04-29T01:53:10.593Z,41.57
2019-04-29T01:56:01.915Z,43.90
2019-04-29T01:58:53.284Z,38.40
2019-04-29T02:01:44.680Z,41.40
2019-04-29T02:04:36.058Z,32.60
2019-04-29T02:07:27.377Z,42.37
2019-04-29T02:10:25.771Z,34.13
2019-04-29T02:13:17.725Z,33.87
2019-04-29T02:16:09.260Z,30.30
2019-04-29T02:19:00.547Z,47.27
2019-04-29T02:22:09.731Z,40.67
2019-04-29T02:25:10.925Z,40.70
2019-04-29T02:28:02.436Z,39.50
2019-04-29T02:30:54.501Z,46.33
2019-04-29T02:33:46.721Z,41.07
2019-04-29T02:36:38.764Z,40.77
2019-04-29T02:39:44.922Z,32.63
2019-04-29T02:42:43.123Z,37.13
2019-04-29T02:45:35.681Z,33.23
2019-04-29T02:48:31.654Z,39.37
2019-04-29T02:51:37.879Z,39.30
2019-04-29T02:54:30.345Z,35.77
2019-04-29T02:57:33.376Z,40.20
2019-04-29T03:00:44.626Z,34.07
2019-04-29T03:03:52.868Z,48.23
2019-04-29T03:06:44.240Z,38.87
2019-04-29T03:09:45.552Z,43.53
2019-04-29T03:12:37.775Z,41.43
2019-04-29T03:15:35.482Z,29.00
2019-04-29T03:18:29.516Z,31.13
2019-04-29T03:21:38.168Z,24.23
2019-04-29T03:24:29.681Z,34.80
2019-04-29T03:27:21.439Z,21.00
2019-04-29T03:30:13.234Z,27.07
2019-04-29T03:33:05.460Z,29.53
2019-04-29T03:35:57.912Z,25.87
2019-04-29T03:38:49.424Z,26.27
2019-04-29T03:41:40.952Z,27.40
2019-04-29T03:44:33.372Z,33.57
2019-04-29T03:47:25.651Z,29.20
2019-04-29T03:50:17.151Z,37.20
2019-04-29T03:53:08.700Z,31.77
2019-04-29T03:56:00.349Z,28.93
2019-04-29T03:58:53.449Z,21.87
2019-04-29T04:02:10.252Z,26.60
2019-04-29T04:05:19.728Z,23.17
2019-04-29T04:08:15.294Z,18.47
2019-04-29T04:11:06.943Z,12.40
2019-04-29T04:13:58.558Z,11.07
2019-04-29T04:17:12.300Z,43.07
2019-04-29T04:20:04.755Z,45.53
2019-04-29T04:22:56.141Z,15.20
2019-04-29T04:25:47.434Z,13.10
2019-04-29T04:28:39.001Z,16.77
2019-04-29T04:31:31.298Z,20.43
2019-04-29T04:34:22.827Z,23.07
2019-04-29T04:37:14.253Z,13.90
2019-04-29T04:40:06.275Z,13.57
2019-04-29T04:42:57.813Z,16.47
2019-04-29T04:45:49.149Z,24.30
2019-04-29T04:48:40.495Z,13.47
2019-04-29T04:51:31.882Z,19.03
2019-04-29T04:54:23.403Z,14.30
2019-04-29T04:57:14.992Z,18.47
2019-04-29T05:00:08.854Z,29.57
2019-04-29T05:03:00.158Z,25.87
2019-04-29T05:05:51.409Z,22.23
2019-04-29T05:08:43.022Z,19.97
2019-04-29T05:11:34.613Z,29.73
2019-04-29T05:14:26.919Z,23.13
2019-04-29T05:17:19.046Z,22.33
2019-04-29T05:20:11.666Z,23.83
2019-04-29T05:23:02.892Z,27.57
2019-04-29T05:25:54.261Z,24.73
2019-04-29T05:28:45.593Z,28.60
2019-04-29T05:31:37.380Z,31.93
2019-04-29T05:34:30.297Z,37.57
2019-04-29T05:37:39.738Z,38.43
2019-04-29T05:40:39.136Z,24.93
2019-04-29T05:43:40.533Z,23.90
2019-04-29T05:46:40.216Z,21.07
2019-04-29T05:49:41.666Z,20.27
2019-04-29T05:52:44.394Z,23.30
2019-04-29T05:55:35.880Z,28.50
2019-04-29T05:58:27.361Z,26.57
2019-04-29T06:01:22.621Z,25.53
2019-04-29T06:04:16.366Z,30.57
2019-04-29T06:07:07.449Z,30.37
2019-04-29T06:09:58.734Z,34.93
2019-04-29T06:12:50.356Z,31.63
2019-04-29T06:15:42.018Z,34.00
2019-04-29T06:18:33.599Z,29.50
2019-04-29T06:21:25.179Z,37.13
2019-04-29T06:24:16.709Z,35.13
2019-04-29T06:27:08.476Z,35.83
2019-04-29T06:30:03.247Z,33.50
2019-04-29T06:32:53.743Z,37.17
2019-04-29T06:35:47.373Z,38.17
2019-04-29T06:38:38.408Z,44.70
2019-04-29T06:41:29.695Z,32.43
2019-04-29T06:44:20.929Z,34.77
2019-04-29T06:47:12.263Z,34.97
2019-04-29T06:50:04.361Z,28.70
2019-04-29T06:52:55.811Z,27.90
2019-04-29T06:55:47.155Z,28.40
2019-04-29T06:58:38.607Z,29.53
2019-04-29T07:01:33.066Z,28.07
2019-04-29T07:04:23.373Z,28.00
2019-04-29T07:07:14.622Z,23.63
2019-04-29T07:10:06.689Z,25.20
2019-04-29T07:12:58.202Z,28.27
2019-04-29T07:15:49.475Z,32.97
2019-04-29T07:18:48.347Z,28.23
2019-04-29T07:21:34.111Z,26.50
2019-04-29T07:24:25.763Z,26.83
2019-04-29T07:27:17.280Z,28.87
2019-04-29T07:30:10.198Z,26.93
2019-04-29T07:33:05.438Z,28.23
2019-04-29T07:35:55.437Z,32.17
2019-04-29T07:38:51.294Z,30.90
2019-04-29T07:41:40.298Z,23.50
2019-04-29T07:44:43.713Z,33.50
2019-04-29T07:47:31.031Z,32.77
2019-04-29T07:50:26.635Z,29.77
2019-04-29T07:53:16.116Z,34.13
2019-04-29T07:56:08.216Z,27.47
2019-04-29T07:59:03.091Z,31.47
2019-04-29T08:01:55.564Z,34.93
2019-04-29T08:04:45.751Z,28.20
2019-04-29T08:07:38.575Z,27.23
2019-04-29T08:10:31.206Z,23.50
2019-04-29T08:13:23.695Z,25.33
2019-04-29T08:16:17.059Z,32.43
2019-04-29T08:19:08.413Z,33.23
2019-04-29T08:21:59.785Z,39.80
2019-04-29T08:24:52.221Z,38.60
2019-04-29T08:27:44.362Z,39.40
2019-04-29T08:30:37.186Z,35.70
2019-04-29T08:33:28.778Z,47.77
2019-04-29T08:36:20.070Z,37.57
2019-04-29T08:39:11.743Z,33.73
2019-04-29T08:42:09.036Z,30.40
2019-04-29T08:45:18.142Z,33.00
2019-04-29T08:48:09.885Z,28.37
2019-04-29T08:51:01.774Z,32.60
2019-04-29T08:53:53.601Z,32.63
2019-04-29T08:57:01.665Z,35.50
2019-04-29T08:59:37.943Z,35.83
2019-04-29T09:02:35.033Z,34.63
2019-04-29T09:05:22.432Z,33.80
2019-04-29T09:08:14.131Z,29.73
2019-04-29T09:11:08.275Z,32.90
2019-04-29T09:13:59.424Z,42.87
2019-04-29T09:16:50.751Z,32.57
2019-04-29T09:19:42.414Z,37.07
2019-04-29T09:22:35.507Z,37.27
2019-04-29T09:25:45.817Z,37.83
2019-04-29T09:28:37.444Z,40.70
2019-04-29T09:31:29.118Z,36.23
2019-04-29T09:34:24.691Z,38.77
2019-04-29T09:37:13.900Z,32.40
2019-04-29T09:40:05.924Z,34.53
2019-04-29T09:43:15.507Z,39.97
2019-04-29T09:46:18.274Z,36.80
2019-04-29T09:49:08.246Z,40.27
2019-04-29T09:51:59.775Z,39.87
2019-04-29T09:54:51.218Z,38.67
2019-04-29T09:57:42.612Z,39.60
2019-04-29T10:00:50.634Z,37.50
2019-04-29T10:04:13.263Z,38.43
2019-04-29T10:07:07.375Z,48.80
2019-04-29T10:10:02.363Z,38.03
2019-04-29T10:12:54.128Z,39.53
2019-04-29T10:16:03.192Z,36.13
2019-04-29T10:19:16.554Z,39.67
2019-04-29T10:22:08.051Z,37.83
2019-04-29T10:24:59.591Z,46.30
2019-04-29T10:27:51.655Z,45.33
2019-04-29T10:30:43.683Z,39.60
2019-04-29T10:33:35.198Z,38.00
2019-04-29T10:36:26.796Z,25.53
2019-04-29T10:39:55.355Z,29.17
2019-04-29T10:43:04.567Z,29.27
2019-04-29T10:46:13.874Z,32.80
2019-04-29T10:49:11.235Z,36.40
2019-04-29T10:52:04.562Z,39.03
2019-04-29T10:54:56.759Z,34.23
2019-04-29T10:57:49.690Z,36.00
2019-04-29T11:02:01.317Z,38.63
2019-04-29T11:04:53.192Z,34.97
2019-04-29T11:07:45.753Z,35.67
2019-04-29T11:10:38.680Z,34.57
2019-04-29T11:13:30.134Z,32.23
2019-04-29T11:16:23.042Z,31.40
2019-04-29T11:19:15.863Z,34.93
2019-04-29T11:22:08.009Z,38.70
2019-04-29T11:25:18.380Z,35.30
2019-04-29T11:28:12.034Z,31.23
2019-04-29T11:31:03.142Z,35.87
2019-04-29T11:34:01.841Z,29.23
2019-04-29T11:36:53.170Z,37.20
2019-04-29T11:39:46.287Z,34.23
2019-04-29T11:42:41.822Z,33.13
2019-04-29T11:45:33.796Z,35.20
2019-04-29T11:48:24.415Z,34.33
2019-04-29T11:51:48.623Z,33.97
2019-04-29T11:54:31.299Z,28.67
2019-04-29T11:57:40.993Z,32.27
2019-04-29T12:00:52.083Z,27.77
2019-04-29T12:03:45.013Z,25.47
2019-04-29T12:06:36.493Z,30.20
2019-04-29T12:09:30.663Z,28.03
2019-04-29T12:12:23.678Z,34.60
2019-04-29T12:15:45.082Z,24.17
2019-04-29T12:18:46.746Z,26.13
2019-04-29T12:21:39.223Z,25.67
2019-04-29T12:24:31.531Z,28.30
2019-04-29T12:27:24.015Z,33.33
2019-04-29T12:30:18.445Z,31.97
2019-04-29T12:33:22.600Z,30.23
2019-04-29T12:36:16.535Z,30.40
2019-04-29T12:39:44.971Z,28.47
2019-04-29T12:43:04.819Z,37.80
2019-04-29T12:46:06.632Z,32.10
2019-04-29T12:48:58.170Z,37.20
2019-04-29T12:51:49.630Z,32.27
2019-04-29T12:54:42.117Z,32.90
2019-04-29T12:57:34.048Z,34.77
2019-04-29T13:00:27.944Z,33.20
2019-04-29T13:03:39.869Z,36.33
2019-04-29T13:06:57.013Z,38.50
2019-04-29T13:09:49.078Z,33.00
2019-04-29T13:12:44.478Z,38.03
2019-04-29T13:15:54.490Z,30.83
2019-04-29T13:18:53.887Z,30.50
2019-04-29T13:21:44.326Z,32.47
2019-04-29T13:24:38.598Z,27.80
2019-04-29T13:27:29.547Z,29.93
2019-04-29T13:30:22.984Z,33.20
2019-04-29T13:33:16.516Z,34.93
2019-04-29T13:36:08.420Z,33.97
2019-04-29T13:39:00.239Z,33.37
2019-04-29T13:41:57.709Z,33.20
2019-04-29T13:45:04.545Z,31.37
2019-04-29T13:48:07.662Z,32.03
2019-04-29T13:51:04.792Z,32.77
2019-04-29T13:53:59.104Z,29.57
2019-04-29T13:56:56.087Z,28.90
2019-04-29T13:59:52.566Z,32.77
2019-04-29T14:02:59.275Z,31.37
2019-04-29T14:05:48.442Z,29.77
2019-04-29T14:08:39.726Z,31.13
2019-04-29T14:11:31.298Z,32.27
2019-04-29T14:14:24.604Z,32.20
2019-04-29T14:17:26.002Z,35.33
2019-04-29T14:20:10.602Z,31.53
2019-04-29T14:23:02.705Z,32.40
2019-04-29T14:25:54.891Z,31.37
2019-04-29T14:28:47.820Z,29.60
2019-04-29T14:31:39.390Z,30.97
2019-04-29T14:34:52.749Z,34.20
2019-04-29T14:37:54.768Z,29.50
2019-04-29T14:40:38.971Z,33.60
2019-04-29T14:43:55.047Z,32.43
2019-04-29T14:47:14.476Z,30.00
2019-04-29T14:50:10.808Z,30.33
2019-04-29T14:53:00.022Z,29.80
2019-04-29T14:55:51.596Z,33.23
2019-04-29T14:58:43.720Z,30.43
2019-04-29T15:01:43.669Z,31.33
2019-04-29T15:04:40.376Z,30.23
2019-04-29T15:07:36.243Z,27.10
2019-04-29T15:10:30.955Z,29.40
2019-04-29T15:13:23.519Z,32.77
2019-04-29T15:16:22.077Z,31.63
2019-04-29T15:19:55.351Z,33.07
2019-04-29T15:22:45.119Z,30.00
2019-04-29T15:25:36.540Z,33.90
2019-04-29T15:28:28.052Z,28.33
2019-04-29T15:31:24.003Z,34.70
2019-04-29T15:34:15.847Z,31.40
2019-04-29T15:37:07.590Z,44.70
2019-04-29T15:39:59.553Z,41.50
2019-04-29T15:42:53.516Z,31.67
2019-04-29T15:45:44.943Z,30.37
2019-04-29T15:48:36.673Z,35.03
2019-04-29T15:51:29.024Z,28.80
2019-04-29T15:54:20.733Z,32.60
2019-04-29T15:57:15.403Z,28.57
2019-04-29T16:00:20.565Z,28.27
2019-04-29T16:03:01.362Z,26.23
2019-04-29T16:06:19.772Z,29.97
2019-04-29T16:09:00.345Z,32.00
2019-04-29T16:12:13.958Z,28.10
2019-04-29T16:15:00.618Z,28.53
2019-04-29T16:17:52.332Z,26.83
2019-04-29T16:20:43.758Z,24.77
2019-04-29T16:23:38.603Z,28.10
2019-04-29T16:29:21.652Z,25.53
2019-04-29T16:32:19.292Z,27.33
2019-04-29T16:35:11.522Z,27.80
2019-04-29T16:38:05.776Z,27.40
2019-04-29T16:41:04.629Z,22.80
2019-04-29T16:43:56.533Z,28.10
2019-04-29T16:46:48.568Z,29.20
2019-04-29T16:49:40.153Z,30.20
2019-04-29T16:52:31.740Z,30.43
2019-04-29T16:55:23.268Z,36.97
2019-04-29T16:58:17.913Z,33.40
2019-04-29T17:01:08.165Z,27.90
2019-04-29T17:04:05.269Z,32.83
2019-04-29T17:07:11.640Z,27.57
2019-04-29T17:10:06.787Z,32.90
2019-04-29T17:12:58.176Z,31.73
2019-04-29T17:15:52.030Z,30.33
2019-04-29T17:18:44.659Z,33.30
2019-04-29T17:21:36.523Z,36.17
2019-04-29T17:24:28.307Z,31.93
2019-04-29T17:27:45.335Z,31.20
2019-04-29T17:30:57.534Z,32.97
2019-04-29T17:33:56.501Z,31.83
2019-04-29T17:35:18.696Z,23.20
2019-04-29T17:36:48.426Z,30.60
2019-04-29T17:39:40.337Z,35.00
2019-04-29T17:42:33.447Z,29.73
2019-04-29T17:45:32.679Z,30.57
2019-04-29T17:48:40.321Z,27.30
2019-04-29T17:51:33.939Z,33.03
2019-04-29T17:54:31.033Z,28.87
2019-04-29T17:57:54.862Z,26.33
2019-04-29T18:01:08.044Z,29.57
2019-04-29T18:04:15.505Z,23.30
2019-04-29T18:07:22.673Z,28.03
2019-04-29T18:10:24.513Z,24.60
2019-04-29T18:13:18.281Z,22.40
2019-04-29T18:16:17.445Z,19.60
2019-04-29T18:19:12.281Z,23.23
2019-04-29T18:22:35.191Z,21.70
2019-04-29T18:25:40.565Z,19.57
2019-04-29T18:28:32.628Z,18.73
2019-04-29T18:31:26.465Z,19.97
2019-04-29T18:34:17.456Z,18.20
2019-04-29T18:37:08.853Z,20.20
2019-04-29T18:40:02.322Z,17.30
2019-04-29T18:42:55.261Z,18.87
2019-04-29T18:45:55.880Z,16.83
2019-04-29T18:48:40.401Z,17.33
2019-04-29T18:51:31.947Z,16.70
2019-04-29T18:54:25.398Z,14.10
2019-04-29T18:57:27.768Z,13.40
2019-04-29T19:00:12.463Z,15.93
2019-04-29T19:03:02.854Z,16.10
2019-04-29T19:05:57.325Z,13.80
2019-04-29T19:08:48.519Z,16.67
2019-04-29T19:11:40.969Z,17.77
2019-04-29T19:14:34.819Z,19.20
2019-04-29T19:17:30.810Z,18.60
2019-04-29T19:20:20.943Z,14.90
2019-04-29T19:23:16.089Z,17.60
2019-04-29T19:26:05.285Z,17.10
2019-04-29T19:28:56.888Z,19.53
2019-04-29T19:31:49.783Z,24.97
2019-04-29T19:34:43.577Z,17.40
2019-04-29T19:37:37.556Z,20.17
2019-04-29T19:40:31.399Z,17.97
2019-04-29T19:43:23.213Z,19.20
2019-04-29T19:46:22.563Z,17.80
2019-04-29T19:49:10.222Z,17.33
2019-04-29T19:52:01.885Z,19.27
2019-04-29T19:54:53.327Z,15.13
2019-04-29T19:57:51.821Z,20.23
2019-04-29T20:00:41.291Z,17.37
2019-04-29T20:03:41.291Z,17.70
2019-04-29T20:06:31.264Z,17.03
2019-04-29T20:09:27.566Z,16.00
2019-04-29T20:12:17.998Z,14.20
2019-04-29T20:15:10.637Z,13.10
2019-04-29T20:18:13.434Z,15.77
2019-04-29T20:21:20.896Z,11.20
2019-04-29T20:24:03.932Z,14.00
2019-04-29T20:26:55.583Z,11.50
2019-04-29T20:29:47.370Z,18.33
2019-04-29T20:32:39.197Z,12.70
2019-04-29T20:35:30.771Z,11.43
2019-04-29T20:38:22.504Z,12.33
2019-04-29T20:41:19.528Z,13.03
2019-04-29T20:44:09.199Z,12.67
2019-04-29T20:47:16.721Z,15.80
2019-04-29T20:49:54.223Z,17.20
2019-04-29T20:53:01.961Z,15.63
2019-04-29T20:55:51.192Z,17.07
2019-04-29T20:58:46.212Z,21.00
2019-04-29T21:01:43.338Z,23.77
2019-04-29T21:04:39.248Z,21.63
2019-04-29T21:07:25.775Z,26.43
2019-04-29T21:10:18.336Z,21.27
2019-04-29T21:13:25.763Z,23.33
2019-04-29T21:16:22.850Z,21.40
2019-04-29T21:19:15.414Z,24.27
2019-04-29T21:22:07.127Z,33.40
2019-04-29T21:24:58.698Z,26.30
2019-04-29T21:27:52.693Z,27.67
2019-04-29T21:30:45.137Z,32.73
2019-04-29T21:33:36.527Z,24.13
2019-04-29T21:36:55.342Z,33.13
2019-04-29T21:40:07.054Z,40.27
2019-04-29T21:43:13.336Z,33.60
2019-04-29T21:45:59.429Z,36.47
2019-04-29T21:48:51.110Z,37.83
2019-04-29T21:51:46.560Z,31.70
2019-04-29T21:54:35.824Z,40.63
2019-04-29T21:57:27.374Z,38.47
2019-04-29T22:00:24.563Z,42.73
2019-04-29T22:03:15.445Z,36.80
2019-04-29T22:06:07.447Z,38.23
2019-04-29T22:09:01.402Z,36.10
2019-04-29T22:11:55.563Z,38.53
2019-04-29T22:14:52.583Z,41.27
2019-04-29T22:17:40.169Z,43.07
2019-04-29T22:20:35.634Z,38.33
2019-04-29T22:23:25.275Z,34.60
2019-04-29T22:26:23.108Z,36.50
2019-04-29T22:29:10.358Z,40.60
2019-04-29T22:32:01.649Z,38.87
2019-04-29T22:35:00.716Z,41.30
2019-04-29T22:37:46.752Z,38.23
2019-04-29T22:40:40.998Z,42.77
2019-04-29T22:43:45.808Z,45.23
2019-04-29T22:46:40.025Z,40.03
2019-04-29T22:49:30.473Z,34.70
2019-04-29T22:52:25.530Z,44.63
2019-04-29T22:55:15.600Z,39.13
2019-04-29T22:58:09.691Z,38.87
2019-04-29T23:01:02.418Z,37.40
2019-04-29T23:03:55.375Z,48.23
2019-04-29T23:06:48.132Z,43.17
2019-04-29T23:09:41.651Z,40.10
2019-04-29T23:12:32.416Z,42.20
2019-04-29T23:15:25.870Z,39.47
2019-04-29T23:18:24.656Z,37.83
2019-04-29T23:21:37.473Z,39.47
2019-04-29T23:24:52.646Z,38.63
2019-04-29T23:27:44.226Z,39.13
2019-04-29T23:30:35.777Z,38.27
2019-04-29T23:33:27.567Z,38.27
2019-04-29T23:36:19.023Z,37.80
2019-04-29T23:39:10.446Z,34.13
2019-04-29T23:42:04.671Z,42.60
2019-04-29T23:44:57.164Z,44.10
2019-04-29T23:47:50.283Z,43.37
2019-04-29T23:50:42.056Z,44.40
2019-04-29T23:53:35.103Z,43.43
2019-04-29T23:56:29.737Z,44.50
2019-04-29T23:59:26.343Z,45.20
